CheckWX is a tool to help pilots better visualize weather data.  It is not intended as a substitute for an official pre-flight weather briefing.

03:32:22 UTC

LIPY METAR
Ancona Falconara Airport
Ancona, Italy
Current

42 mins ago

LIPY 220250Z VRB01KT CAVOK 20/17 Q1020
Observed
Jul-22 @ 02:50 UTC
Wind
  • Variable at 1 KTS
Visibility
10,000+ meters
Flight Rules
VFR
Cloud Levels
  • Clear skies
Temperature
20°C / 68°F
Dewpoint
17°C / 63°F
Humidity
83%
Altimeter
30.12" Hg
Pressure
1019.92 hPa
Previous

2 hours ago

LIPY 220150Z 25003KT CAVOK 21/18 Q1020
Observed
Jul-22 @ 01:50 UTC
Wind
  • 250° at 3 KTS
Visibility
10,000+ meters
Flight Rules
VFR
Cloud Levels
  • Clear skies
Temperature
21°C / 70°F
Dewpoint
18°C / 64°F
Humidity
83%
Altimeter
30.12" Hg
Pressure
1019.92 hPa
Previous

3 hours ago

LIPY 220050Z 17002KT CAVOK 23/18 Q1020
Observed
Jul-22 @ 00:50 UTC
Wind
  • 170° at 2 KTS
Visibility
10,000+ meters
Flight Rules
VFR
Cloud Levels
  • Clear skies
Temperature
23°C / 73°F
Dewpoint
18°C / 64°F
Humidity
74%
Altimeter
30.12" Hg
Pressure
1019.92 hPa